sensor_id;sensor_type;location;lat;lon;timestamp;P1;durP1;ratioP1;P2;durP2;ratioP2
13698;SDS011;6921;53.642;9.956;2023-03-14T00:00:29;4.38;;;2.78;;
13698;SDS011;6921;53.642;9.956;2023-03-14T00:02:33;7.57;;;2.58;;
13698;SDS011;6921;53.642;9.956;2023-03-14T00:04:43;7.23;;;2.50;;
13698;SDS011;6921;53.642;9.956;2023-03-14T00:06:47;5.38;;;2.55;;
13698;SDS011;6921;53.642;9.956;2023-03-14T00:08:50;7.07;;;2.60;;
13698;SDS011;6921;53.642;9.956;2023-03-14T00:10:55;4.30;;;2.60;;
13698;SDS011;6921;53.642;9.956;2023-03-14T00:13:00;4.30;;;2.30;;
13698;SDS011;6921;53.642;9.956;2023-03-14T00:15:07;7.25;;;3.08;;
13698;SDS011;6921;53.642;9.956;2023-03-14T00:17:13;6.03;;;2.65;;
13698;SDS011;6921;53.642;9.956;2023-03-14T00:19:18;6.80;;;2.97;;
13698;SDS011;6921;53.642;9.956;2023-03-14T00:21:26;5.78;;;2.97;;
13698;SDS011;6921;53.642;9.956;2023-03-14T00:23:31;5.72;;;2.60;;
13698;SDS011;6921;53.642;9.956;2023-03-14T00:25:34;6.28;;;2.95;;
13698;SDS011;6921;53.642;9.956;2023-03-14T00:27:38;5.40;;;2.88;;
13698;SDS011;6921;53.642;9.956;2023-03-14T00:29:43;6.22;;;3.10;;
13698;SDS011;6921;53.642;9.956;2023-03-14T00:31:47;5.47;;;2.60;;
13698;SDS011;6921;53.642;9.956;2023-03-14T00:33:51;5.78;;;2.72;;
13698;SDS011;6921;53.642;9.956;2023-03-14T00:35:55;6.72;;;3.00;;
13698;SDS011;6921;53.642;9.956;2023-03-14T00:38:02;4.93;;;2.55;;
13698;SDS011;6921;53.642;9.956;2023-03-14T00:40:08;7.50;;;3.03;;
13698;SDS011;6921;53.642;9.956;2023-03-14T00:42:11;7.40;;;2.45;;
13698;SDS011;6921;53.642;9.956;2023-03-14T00:44:15;6.78;;;2.60;;
13698;SDS011;6921;53.642;9.956;2023-03-14T00:46:19;4.82;;;2.78;;
13698;SDS011;6921;53.642;9.956;2023-03-14T00:48:23;5.05;;;2.60;;
13698;SDS011;6921;53.642;9.956;2023-03-14T00:50:32;6.95;;;2.70;;
13698;SDS011;6921;53.642;9.956;2023-03-14T00:52:35;9.85;;;2.72;;
13698;SDS011;6921;53.642;9.956;2023-03-14T00:54:41;6.95;;;2.63;;
13698;SDS011;6921;53.642;9.956;2023-03-14T00:56:44;7.78;;;2.63;;
13698;SDS011;6921;53.642;9.956;2023-03-14T00:58:48;8.75;;;2.40;;
13698;SDS011;6921;53.642;9.956;2023-03-14T01:00:52;5.85;;;2.80;;
13698;SDS011;6921;53.642;9.956;2023-03-14T01:02:56;4.47;;;2.03;;
13698;SDS011;6921;53.642;9.956;2023-03-14T01:05:01;8.02;;;2.45;;
13698;SDS011;6921;53.642;9.956;2023-03-14T01:07:05;6.05;;;2.40;;
13698;SDS011;6921;53.642;9.956;2023-03-14T01:09:09;6.07;;;2.63;;
13698;SDS011;6921;53.642;9.956;2023-03-14T01:11:15;6.60;;;2.53;;
13698;SDS011;6921;53.642;9.956;2023-03-14T01:13:19;5.10;;;2.30;;
13698;SDS011;6921;53.642;9.956;2023-03-14T01:15:23;5.85;;;2.13;;
13698;SDS011;6921;53.642;9.956;2023-03-14T01:17:27;8.27;;;2.50;;
13698;SDS011;6921;53.642;9.956;2023-03-14T01:19:30;7.22;;;2.55;;
13698;SDS011;6921;53.642;9.956;2023-03-14T01:21:34;7.15;;;2.88;;
13698;SDS011;6921;53.642;9.956;2023-03-14T01:23:39;7.75;;;2.30;;
13698;SDS011;6921;53.642;9.956;2023-03-14T01:25:43;6.88;;;2.85;;
13698;SDS011;6921;53.642;9.956;2023-03-14T01:27:49;6.07;;;2.60;;
13698;SDS011;6921;53.642;9.956;2023-03-14T01:29:52;7.18;;;2.90;;
13698;SDS011;6921;53.642;9.956;2023-03-14T01:31:57;5.80;;;2.40;;
13698;SDS011;6921;53.642;9.956;2023-03-14T01:34:01;7.00;;;2.78;;
13698;SDS011;6921;53.642;9.956;2023-03-14T01:36:05;7.20;;;2.50;;
13698;SDS011;6921;53.642;9.956;2023-03-14T01:38:09;4.65;;;2.35;;
13698;SDS011;6921;53.642;9.956;2023-03-14T01:40:12;7.22;;;2.70;;
13698;SDS011;6921;53.642;9.956;2023-03-14T01:42:18;6.00;;;2.40;;
13698;SDS011;6921;53.642;9.956;2023-03-14T01:44:24;7.53;;;2.65;;
13698;SDS011;6921;53.642;9.956;2023-03-14T01:46:32;7.57;;;2.40;;
13698;SDS011;6921;53.642;9.956;2023-03-14T01:48:38;5.60;;;2.72;;
13698;SDS011;6921;53.642;9.956;2023-03-14T01:50:42;5.15;;;2.30;;
13698;SDS011;6921;53.642;9.956;2023-03-14T01:52:46;6.30;;;2.50;;
13698;SDS011;6921;53.642;9.956;2023-03-14T01:54:51;4.70;;;1.98;;
13698;SDS011;6921;53.642;9.956;2023-03-14T01:56:56;8.80;;;2.40;;
13698;SDS011;6921;53.642;9.956;2023-03-14T01:59:01;7.13;;;2.60;;
13698;SDS011;6921;53.642;9.956;2023-03-14T02:01:08;5.45;;;2.65;;
13698;SDS011;6921;53.642;9.956;2023-03-14T02:03:14;5.55;;;2.80;;
13698;SDS011;6921;53.642;9.956;2023-03-14T02:05:21;6.38;;;2.88;;
13698;SDS011;6921;53.642;9.956;2023-03-14T02:07:26;5.38;;;3.40;;
13698;SDS011;6921;53.642;9.956;2023-03-14T02:09:41;8.35;;;2.75;;
13698;SDS011;6921;53.642;9.956;2023-03-14T02:11:46;9.05;;;2.80;;
13698;SDS011;6921;53.642;9.956;2023-03-14T02:13:50;6.03;;;2.65;;
13698;SDS011;6921;53.642;9.956;2023-03-14T02:15:54;6.50;;;2.50;;
13698;SDS011;6921;53.642;9.956;2023-03-14T02:18:00;5.03;;;2.88;;
13698;SDS011;6921;53.642;9.956;2023-03-14T02:20:14;6.75;;;2.63;;
13698;SDS011;6921;53.642;9.956;2023-03-14T02:22:26;5.28;;;2.97;;
13698;SDS011;6921;53.642;9.956;2023-03-14T02:24:33;4.95;;;2.58;;
13698;SDS011;6921;53.642;9.956;2023-03-14T02:26:38;5.68;;;2.60;;
13698;SDS011;6921;53.642;9.956;2023-03-14T02:28:45;8.77;;;3.00;;
13698;SDS011;6921;53.642;9.956;2023-03-14T02:30:49;4.80;;;2.97;;
13698;SDS011;6921;53.642;9.956;2023-03-14T02:32:54;7.10;;;2.83;;
13698;SDS011;6921;53.642;9.956;2023-03-14T02:34:59;7.70;;;3.35;;
13698;SDS011;6921;53.642;9.956;2023-03-14T02:37:03;8.05;;;3.03;;
13698;SDS011;6921;53.642;9.956;2023-03-14T02:39:10;7.35;;;3.15;;
13698;SDS011;6921;53.642;9.956;2023-03-14T02:41:15;6.78;;;3.25;;
13698;SDS011;6921;53.642;9.956;2023-03-14T02:43:19;7.72;;;3.17;;
13698;SDS011;6921;53.642;9.956;2023-03-14T02:45:42;7.87;;;2.93;;
13698;SDS011;6921;53.642;9.956;2023-03-14T02:47:46;9.05;;;3.08;;
13698;SDS011;6921;53.642;9.956;2023-03-14T02:49:53;6.05;;;2.67;;
13698;SDS011;6921;53.642;9.956;2023-03-14T02:51:59;7.03;;;2.88;;
13698;SDS011;6921;53.642;9.956;2023-03-14T02:54:03;6.82;;;2.80;;
13698;SDS011;6921;53.642;9.956;2023-03-14T02:56:07;6.72;;;3.17;;
13698;SDS011;6921;53.642;9.956;2023-03-14T02:58:11;5.10;;;2.85;;
13698;SDS011;6921;53.642;9.956;2023-03-14T03:00:15;5.03;;;2.92;;
13698;SDS011;6921;53.642;9.956;2023-03-14T03:02:21;6.60;;;3.63;;
13698;SDS011;6921;53.642;9.956;2023-03-14T03:04:25;7.43;;;2.95;;
13698;SDS011;6921;53.642;9.956;2023-03-14T03:06:28;7.47;;;3.15;;
13698;SDS011;6921;53.642;9.956;2023-03-14T03:08:32;5.82;;;3.22;;
13698;SDS011;6921;53.642;9.956;2023-03-14T03:10:36;7.28;;;3.67;;
13698;SDS011;6921;53.642;9.956;2023-03-14T03:12:39;5.35;;;3.20;;
13698;SDS011;6921;53.642;9.956;2023-03-14T03:14:43;6.85;;;3.75;;
13698;SDS011;6921;53.642;9.956;2023-03-14T03:16:46;9.05;;;3.60;;
13698;SDS011;6921;53.642;9.956;2023-03-14T03:18:51;7.70;;;3.60;;
13698;SDS011;6921;53.642;9.956;2023-03-14T03:20:59;5.65;;;3.22;;
13698;SDS011;6921;53.642;9.956;2023-03-14T03:23:03;5.85;;;3.17;;
13698;SDS011;6921;53.642;9.956;2023-03-14T03:25:07;5.35;;;3.10;;
13698;SDS011;6921;53.642;9.956;2023-03-14T03:27:13;7.57;;;3.50;;
13698;SDS011;6921;53.642;9.956;2023-03-14T03:29:17;5.10;;;3.03;;
13698;SDS011;6921;53.642;9.956;2023-03-14T03:31:21;9.23;;;3.50;;
13698;SDS011;6921;53.642;9.956;2023-03-14T03:33:24;6.77;;;3.17;;
13698;SDS011;6921;53.642;9.956;2023-03-14T03:35:30;7.63;;;3.65;;
13698;SDS011;6921;53.642;9.956;2023-03-14T03:37:34;10.98;;;3.42;;
13698;SDS011;6921;53.642;9.956;2023-03-14T03:39:40;7.93;;;3.33;;
13698;SDS011;6921;53.642;9.956;2023-03-14T03:41:43;7.13;;;3.17;;
13698;SDS011;6921;53.642;9.956;2023-03-14T03:43:47;3.95;;;2.90;;
13698;SDS011;6921;53.642;9.956;2023-03-14T03:45:50;6.10;;;3.15;;
13698;SDS011;6921;53.642;9.956;2023-03-14T03:47:54;8.25;;;3.35;;
13698;SDS011;6921;53.642;9.956;2023-03-14T03:49:58;7.18;;;2.95;;
13698;SDS011;6921;53.642;9.956;2023-03-14T03:52:03;6.90;;;2.88;;
13698;SDS011;6921;53.642;9.956;2023-03-14T03:54:07;6.03;;;3.00;;
13698;SDS011;6921;53.642;9.956;2023-03-14T03:56:11;6.97;;;3.17;;
13698;SDS011;6921;53.642;9.956;2023-03-14T03:58:14;4.05;;;2.60;;
13698;SDS011;6921;53.642;9.956;2023-03-14T04:00:18;7.43;;;3.17;;
13698;SDS011;6921;53.642;9.956;2023-03-14T04:02:22;6.85;;;3.10;;
13698;SDS011;6921;53.642;9.956;2023-03-14T04:04:25;9.65;;;3.13;;
13698;SDS011;6921;53.642;9.956;2023-03-14T04:06:29;4.28;;;2.97;;
13698;SDS011;6921;53.642;9.956;2023-03-14T04:08:35;5.53;;;2.90;;
13698;SDS011;6921;53.642;9.956;2023-03-14T04:10:39;5.40;;;2.50;;
13698;SDS011;6921;53.642;9.956;2023-03-14T04:12:44;6.45;;;3.25;;
13698;SDS011;6921;53.642;9.956;2023-03-14T04:14:48;5.68;;;3.00;;
13698;SDS011;6921;53.642;9.956;2023-03-14T04:16:52;5.85;;;2.80;;
13698;SDS011;6921;53.642;9.956;2023-03-14T04:18:55;5.05;;;2.95;;
13698;SDS011;6921;53.642;9.956;2023-03-14T04:21:00;6.15;;;2.67;;
13698;SDS011;6921;53.642;9.956;2023-03-14T04:23:04;6.78;;;3.20;;
13698;SDS011;6921;53.642;9.956;2023-03-14T04:25:09;6.55;;;3.08;;
13698;SDS011;6921;53.642;9.956;2023-03-14T04:27:12;4.78;;;3.08;;
13698;SDS011;6921;53.642;9.956;2023-03-14T04:29:18;9.20;;;3.38;;
13698;SDS011;6921;53.642;9.956;2023-03-14T04:31:22;4.82;;;2.88;;
13698;SDS011;6921;53.642;9.956;2023-03-14T04:33:29;7.20;;;3.33;;
13698;SDS011;6921;53.642;9.956;2023-03-14T04:35:38;6.43;;;2.95;;
13698;SDS011;6921;53.642;9.956;2023-03-14T04:37:42;7.90;;;3.17;;
13698;SDS011;6921;53.642;9.956;2023-03-14T04:39:53;5.80;;;2.72;;
13698;SDS011;6921;53.642;9.956;2023-03-14T04:41:58;8.57;;;3.22;;
13698;SDS011;6921;53.642;9.956;2023-03-14T04:44:03;7.38;;;3.17;;
13698;SDS011;6921;53.642;9.956;2023-03-14T04:46:06;7.93;;;3.42;;
13698;SDS011;6921;53.642;9.956;2023-03-14T04:48:10;4.32;;;2.38;;
13698;SDS011;6921;53.642;9.956;2023-03-14T04:50:14;4.47;;;1.90;;
13698;SDS011;6921;53.642;9.956;2023-03-14T04:52:18;1.50;;;1.20;;
13698;SDS011;6921;53.642;9.956;2023-03-14T04:54:22;1.40;;;1.00;;
13698;SDS011;6921;53.642;9.956;2023-03-14T04:56:25;3.73;;;0.70;;
13698;SDS011;6921;53.642;9.956;2023-03-14T04:58:30;2.92;;;1.00;;
13698;SDS011;6921;53.642;9.956;2023-03-14T05:00:33;1.33;;;1.00;;
13698;SDS011;6921;53.642;9.956;2023-03-14T05:02:40;2.07;;;1.00;;
13698;SDS011;6921;53.642;9.956;2023-03-14T05:04:43;1.73;;;0.93;;
13698;SDS011;6921;53.642;9.956;2023-03-14T05:06:47;1.10;;;0.90;;
13698;SDS011;6921;53.642;9.956;2023-03-14T05:08:51;2.00;;;1.17;;
13698;SDS011;6921;53.642;9.956;2023-03-14T05:10:55;2.40;;;1.03;;
13698;SDS011;6921;53.642;9.956;2023-03-14T05:12:59;3.13;;;1.10;;
13698;SDS011;6921;53.642;9.956;2023-03-14T05:15:06;2.37;;;1.17;;
13698;SDS011;6921;53.642;9.956;2023-03-14T05:17:10;2.17;;;1.23;;
13698;SDS011;6921;53.642;9.956;2023-03-14T05:19:22;2.90;;;1.37;;
13698;SDS011;6921;53.642;9.956;2023-03-14T05:21:25;4.70;;;1.50;;
13698;SDS011;6921;53.642;9.956;2023-03-14T05:23:29;3.17;;;1.77;;
13698;SDS011;6921;53.642;9.956;2023-03-14T05:25:33;5.07;;;1.73;;
13698;SDS011;6921;53.642;9.956;2023-03-14T05:27:37;3.80;;;1.80;;
13698;SDS011;6921;53.642;9.956;2023-03-14T05:29:41;4.23;;;1.70;;
13698;SDS011;6921;53.642;9.956;2023-03-14T05:31:47;2.50;;;2.10;;
13698;SDS011;6921;53.642;9.956;2023-03-14T05:33:51;2.90;;;2.03;;
13698;SDS011;6921;53.642;9.956;2023-03-14T05:35:55;2.70;;;2.20;;
13698;SDS011;6921;53.642;9.956;2023-03-14T05:37:58;4.43;;;2.93;;
13698;SDS011;6921;53.642;9.956;2023-03-14T05:40:05;3.27;;;2.30;;
13698;SDS011;6921;53.642;9.956;2023-03-14T05:42:10;3.80;;;2.77;;
13698;SDS011;6921;53.642;9.956;2023-03-14T05:44:13;4.50;;;2.93;;
13698;SDS011;6921;53.642;9.956;2023-03-14T05:46:19;5.90;;;3.17;;
13698;SDS011;6921;53.642;9.956;2023-03-14T05:48:25;4.10;;;3.07;;
13698;SDS011;6921;53.642;9.956;2023-03-14T05:50:28;7.50;;;3.20;;
13698;SDS011;6921;53.642;9.956;2023-03-14T05:52:32;5.20;;;3.80;;
13698;SDS011;6921;53.642;9.956;2023-03-14T05:54:35;5.73;;;3.80;;
13698;SDS011;6921;53.642;9.956;2023-03-14T05:56:39;6.57;;;4.47;;
13698;SDS011;6921;53.642;9.956;2023-03-14T05:58:43;4.77;;;4.30;;
13698;SDS011;6921;53.642;9.956;2023-03-14T06:00:47;7.23;;;4.27;;
13698;SDS011;6921;53.642;9.956;2023-03-14T06:02:53;6.40;;;4.70;;
13698;SDS011;6921;53.642;9.956;2023-03-14T06:04:58;6.93;;;4.23;;
13698;SDS011;6921;53.642;9.956;2023-03-14T06:07:02;7.23;;;5.00;;
13698;SDS011;6921;53.642;9.956;2023-03-14T06:09:05;9.60;;;5.27;;
13698;SDS011;6921;53.642;9.956;2023-03-14T06:11:09;8.77;;;5.13;;
13698;SDS011;6921;53.642;9.956;2023-03-14T06:13:13;9.23;;;5.27;;
13698;SDS011;6921;53.642;9.956;2023-03-14T06:15:16;10.23;;;6.13;;
13698;SDS011;6921;53.642;9.956;2023-03-14T06:17:20;11.90;;;6.20;;
13698;SDS011;6921;53.642;9.956;2023-03-14T06:19:24;8.93;;;5.67;;
13698;SDS011;6921;53.642;9.956;2023-03-14T06:21:29;8.73;;;6.13;;
13698;SDS011;6921;53.642;9.956;2023-03-14T06:23:33;11.47;;;6.50;;
13698;SDS011;6921;53.642;9.956;2023-03-14T06:25:37;10.10;;;6.50;;
13698;SDS011;6921;53.642;9.956;2023-03-14T06:27:40;8.40;;;6.27;;
13698;SDS011;6921;53.642;9.956;2023-03-14T06:29:46;9.33;;;6.93;;
13698;SDS011;6921;53.642;9.956;2023-03-14T06:31:50;11.80;;;7.30;;
13698;SDS011;6921;53.642;9.956;2023-03-14T06:33:54;11.80;;;7.37;;
13698;SDS011;6921;53.642;9.956;2023-03-14T06:36:00;10.60;;;7.20;;
13698;SDS011;6921;53.642;9.956;2023-03-14T06:38:05;9.43;;;6.67;;
13698;SDS011;6921;53.642;9.956;2023-03-14T06:40:11;12.83;;;8.10;;
13698;SDS011;6921;53.642;9.956;2023-03-14T06:42:18;12.53;;;8.50;;
13698;SDS011;6921;53.642;9.956;2023-03-14T06:44:22;13.20;;;8.67;;
13698;SDS011;6921;53.642;9.956;2023-03-14T06:46:26;14.23;;;8.20;;
13698;SDS011;6921;53.642;9.956;2023-03-14T06:48:30;11.60;;;7.93;;
13698;SDS011;6921;53.642;9.956;2023-03-14T06:50:36;15.13;;;8.53;;
13698;SDS011;6921;53.642;9.956;2023-03-14T06:52:40;12.37;;;8.60;;
13698;SDS011;6921;53.642;9.956;2023-03-14T06:54:51;12.53;;;7.87;;
13698;SDS011;6921;53.642;9.956;2023-03-14T06:56:54;13.30;;;7.97;;
13698;SDS011;6921;53.642;9.956;2023-03-14T06:58:58;15.67;;;7.53;;
13698;SDS011;6921;53.642;9.956;2023-03-14T07:01:04;13.80;;;7.10;;
13698;SDS011;6921;53.642;9.956;2023-03-14T07:03:08;10.37;;;7.10;;
13698;SDS011;6921;53.642;9.956;2023-03-14T07:05:13;14.17;;;7.20;;
13698;SDS011;6921;53.642;9.956;2023-03-14T07:07:17;8.97;;;6.60;;
13698;SDS011;6921;53.642;9.956;2023-03-14T07:09:23;11.73;;;6.33;;
13698;SDS011;6921;53.642;9.956;2023-03-14T07:11:28;9.27;;;5.67;;
13698;SDS011;6921;53.642;9.956;2023-03-14T07:13:34;11.33;;;5.33;;
13698;SDS011;6921;53.642;9.956;2023-03-14T07:15:37;6.60;;;4.67;;
13698;SDS011;6921;53.642;9.956;2023-03-14T07:17:41;8.60;;;4.50;;
13698;SDS011;6921;53.642;9.956;2023-03-14T07:19:44;9.63;;;4.13;;
13698;SDS011;6921;53.642;9.956;2023-03-14T07:21:50;8.13;;;4.17;;
13698;SDS011;6921;53.642;9.956;2023-03-14T07:23:53;6.27;;;3.90;;
13698;SDS011;6921;53.642;9.956;2023-03-14T07:25:58;9.93;;;3.67;;
13698;SDS011;6921;53.642;9.956;2023-03-14T07:28:05;5.83;;;3.20;;
13698;SDS011;6921;53.642;9.956;2023-03-14T07:30:10;5.93;;;3.03;;
13698;SDS011;6921;53.642;9.956;2023-03-14T07:32:14;6.03;;;3.07;;
13698;SDS011;6921;53.642;9.956;2023-03-14T07:34:19;8.53;;;2.50;;
13698;SDS011;6921;53.642;9.956;2023-03-14T07:36:23;5.57;;;2.60;;
13698;SDS011;6921;53.642;9.956;2023-03-14T07:38:29;7.47;;;2.87;;
13698;SDS011;6921;53.642;9.956;2023-03-14T07:40:32;5.23;;;2.43;;
13698;SDS011;6921;53.642;9.956;2023-03-14T07:42:36;6.33;;;2.30;;
13698;SDS011;6921;53.642;9.956;2023-03-14T07:44:41;6.53;;;2.30;;
13698;SDS011;6921;53.642;9.956;2023-03-14T07:46:45;5.60;;;2.60;;
13698;SDS011;6921;53.642;9.956;2023-03-14T07:48:48;8.50;;;2.50;;
13698;SDS011;6921;53.642;9.956;2023-03-14T07:50:52;6.00;;;2.37;;
13698;SDS011;6921;53.642;9.956;2023-03-14T07:52:58;6.90;;;2.77;;
13698;SDS011;6921;53.642;9.956;2023-03-14T07:55:02;5.53;;;2.47;;
13698;SDS011;6921;53.642;9.956;2023-03-14T07:57:06;6.77;;;2.43;;
13698;SDS011;6921;53.642;9.956;2023-03-14T07:59:09;4.20;;;2.60;;
13698;SDS011;6921;53.642;9.956;2023-03-14T08:01:16;6.23;;;2.67;;
13698;SDS011;6921;53.642;9.956;2023-03-14T08:03:19;6.57;;;2.80;;
13698;SDS011;6921;53.642;9.956;2023-03-14T08:05:23;5.50;;;2.50;;
13698;SDS011;6921;53.642;9.956;2023-03-14T08:07:27;5.53;;;2.93;;
13698;SDS011;6921;53.642;9.956;2023-03-14T08:09:33;8.02;;;3.05;;
13698;SDS011;6921;53.642;9.956;2023-03-14T08:11:38;5.90;;;2.72;;
13698;SDS011;6921;53.642;9.956;2023-03-14T08:13:42;7.97;;;2.83;;
13698;SDS011;6921;53.642;9.956;2023-03-14T08:15:50;5.38;;;2.85;;
13698;SDS011;6921;53.642;9.956;2023-03-14T08:17:57;6.07;;;2.47;;
13698;SDS011;6921;53.642;9.956;2023-03-14T08:20:02;6.07;;;2.58;;
13698;SDS011;6921;53.642;9.956;2023-03-14T08:22:13;4.17;;;1.90;;
13698;SDS011;6921;53.642;9.956;2023-03-14T08:24:20;4.57;;;2.03;;
13698;SDS011;6921;53.642;9.956;2023-03-14T08:26:23;4.63;;;2.00;;
13698;SDS011;6921;53.642;9.956;2023-03-14T08:28:27;4.80;;;2.10;;
13698;SDS011;6921;53.642;9.956;2023-03-14T08:30:31;3.63;;;1.80;;
13698;SDS011;6921;53.642;9.956;2023-03-14T08:32:35;4.70;;;1.70;;
13698;SDS011;6921;53.642;9.956;2023-03-14T08:34:41;3.80;;;1.90;;
13698;SDS011;6921;53.642;9.956;2023-03-14T08:36:44;4.93;;;2.40;;
13698;SDS011;6921;53.642;9.956;2023-03-14T08:38:48;3.58;;;2.00;;
13698;SDS011;6921;53.642;9.956;2023-03-14T08:40:59;5.43;;;1.87;;
13698;SDS011;6921;53.642;9.956;2023-03-14T08:43:02;2.83;;;2.13;;
13698;SDS011;6921;53.642;9.956;2023-03-14T08:45:06;5.60;;;2.30;;
13698;SDS011;6921;53.642;9.956;2023-03-14T08:47:10;4.00;;;1.58;;
13698;SDS011;6921;53.642;9.956;2023-03-14T08:49:15;6.70;;;2.40;;
13698;SDS011;6921;53.642;9.956;2023-03-14T08:51:20;4.00;;;2.00;;
13698;SDS011;6921;53.642;9.956;2023-03-14T08:53:24;3.53;;;2.38;;
13698;SDS011;6921;53.642;9.956;2023-03-14T08:55:29;4.57;;;2.30;;
13698;SDS011;6921;53.642;9.956;2023-03-14T08:57:33;4.57;;;2.40;;
13698;SDS011;6921;53.642;9.956;2023-03-14T08:59:38;5.57;;;2.80;;
13698;SDS011;6921;53.642;9.956;2023-03-14T09:01:42;4.63;;;2.90;;
13698;SDS011;6921;53.642;9.956;2023-03-14T09:03:47;7.82;;;3.22;;
13698;SDS011;6921;53.642;9.956;2023-03-14T09:05:51;6.03;;;2.90;;
13698;SDS011;6921;53.642;9.956;2023-03-14T09:07:58;4.65;;;2.90;;
13698;SDS011;6921;53.642;9.956;2023-03-14T09:10:04;6.53;;;2.97;;
13698;SDS011;6921;53.642;9.956;2023-03-14T09:12:13;6.53;;;3.07;;
13698;SDS011;6921;53.642;9.956;2023-03-14T09:14:16;7.37;;;3.47;;
13698;SDS011;6921;53.642;9.956;2023-03-14T09:16:23;6.27;;;3.67;;
13698;SDS011;6921;53.642;9.956;2023-03-14T09:18:27;7.35;;;3.50;;
13698;SDS011;6921;53.642;9.956;2023-03-14T09:20:31;5.93;;;3.27;;
13698;SDS011;6921;53.642;9.956;2023-03-14T09:22:34;6.13;;;3.60;;
13698;SDS011;6921;53.642;9.956;2023-03-14T09:24:41;7.88;;;4.00;;
13698;SDS011;6921;53.642;9.956;2023-03-14T09:26:45;8.57;;;4.20;;
13698;SDS011;6921;53.642;9.956;2023-03-14T09:28:50;6.37;;;4.07;;
13698;SDS011;6921;53.642;9.956;2023-03-14T09:31:04;8.57;;;4.17;;
13698;SDS011;6921;53.642;9.956;2023-03-14T09:33:10;7.53;;;4.27;;
13698;SDS011;6921;53.642;9.956;2023-03-14T09:35:17;8.90;;;4.47;;
13698;SDS011;6921;53.642;9.956;2023-03-14T09:37:21;7.27;;;4.70;;
13698;SDS011;6921;53.642;9.956;2023-03-14T09:39:27;8.20;;;4.70;;
13698;SDS011;6921;53.642;9.956;2023-03-14T09:41:33;11.97;;;5.17;;
13698;SDS011;6921;53.642;9.956;2023-03-14T09:43:39;7.00;;;4.40;;
13698;SDS011;6921;53.642;9.956;2023-03-14T09:45:44;8.93;;;4.70;;
13698;SDS011;6921;53.642;9.956;2023-03-14T09:47:50;6.73;;;2.23;;
13698;SDS011;6921;53.642;9.956;2023-03-14T09:50:00;3.10;;;1.50;;
13698;SDS011;6921;53.642;9.956;2023-03-14T09:52:05;1.50;;;1.03;;
13698;SDS011;6921;53.642;9.956;2023-03-14T09:54:14;2.83;;;1.23;;
13698;SDS011;6921;53.642;9.956;2023-03-14T09:56:21;2.67;;;1.70;;
13698;SDS011;6921;53.642;9.956;2023-03-14T09:58:28;3.87;;;1.33;;
13698;SDS011;6921;53.642;9.956;2023-03-14T10:00:32;2.93;;;1.47;;
13698;SDS011;6921;53.642;9.956;2023-03-14T10:02:36;5.07;;;1.87;;
13698;SDS011;6921;53.642;9.956;2023-03-14T10:04:40;5.03;;;2.00;;
13698;SDS011;6921;53.642;9.956;2023-03-14T10:06:46;3.17;;;1.63;;
13698;SDS011;6921;53.642;9.956;2023-03-14T10:08:50;3.10;;;1.47;;
13698;SDS011;6921;53.642;9.956;2023-03-14T10:10:55;2.57;;;1.53;;
13698;SDS011;6921;53.642;9.956;2023-03-14T10:12:59;2.23;;;1.03;;
13698;SDS011;6921;53.642;9.956;2023-03-14T10:15:05;2.07;;;1.00;;
13698;SDS011;6921;53.642;9.956;2023-03-14T10:17:11;1.73;;;1.17;;
13698;SDS011;6921;53.642;9.956;2023-03-14T10:19:15;1.67;;;0.97;;
13698;SDS011;6921;53.642;9.956;2023-03-14T10:21:21;1.03;;;0.90;;
13698;SDS011;6921;53.642;9.956;2023-03-14T10:23:26;1.70;;;0.90;;
13698;SDS011;6921;53.642;9.956;2023-03-14T10:25:31;1.23;;;0.73;;
13698;SDS011;6921;53.642;9.956;2023-03-14T10:27:35;0.90;;;0.50;;
13698;SDS011;6921;53.642;9.956;2023-03-14T10:29:50;1.40;;;0.50;;
13698;SDS011;6921;53.642;9.956;2023-03-14T10:31:57;1.43;;;0.37;;
13698;SDS011;6921;53.642;9.956;2023-03-14T10:34:03;1.80;;;0.60;;
13698;SDS011;6921;53.642;9.956;2023-03-14T10:36:15;0.50;;;0.50;;
13698;SDS011;6921;53.642;9.956;2023-03-14T10:38:22;3.53;;;0.60;;
13698;SDS011;6921;53.642;9.956;2023-03-14T10:40:27;0.97;;;0.50;;
13698;SDS011;6921;53.642;9.956;2023-03-14T10:42:31;1.17;;;0.30;;
13698;SDS011;6921;53.642;9.956;2023-03-14T10:44:36;0.53;;;0.30;;
13698;SDS011;6921;53.642;9.956;2023-03-14T10:46:40;1.03;;;0.47;;
13698;SDS011;6921;53.642;9.956;2023-03-14T10:48:47;2.33;;;0.50;;
13698;SDS011;6921;53.642;9.956;2023-03-14T10:50:54;0.40;;;0.40;;
13698;SDS011;6921;53.642;9.956;2023-03-14T10:53:00;0.70;;;0.50;;
13698;SDS011;6921;53.642;9.956;2023-03-14T10:55:10;0.63;;;0.60;;
13698;SDS011;6921;53.642;9.956;2023-03-14T10:57:13;0.20;;;0.20;;
13698;SDS011;6921;53.642;9.956;2023-03-14T10:59:17;0.93;;;0.40;;
13698;SDS011;6921;53.642;9.956;2023-03-14T11:01:29;0.63;;;0.47;;
13698;SDS011;6921;53.642;9.956;2023-03-14T11:03:35;0.53;;;0.50;;
13698;SDS011;6921;53.642;9.956;2023-03-14T11:05:42;0.77;;;0.30;;
13698;SDS011;6921;53.642;9.956;2023-03-14T11:07:46;1.17;;;0.43;;
13698;SDS011;6921;53.642;9.956;2023-03-14T11:09:50;2.03;;;0.60;;
13698;SDS011;6921;53.642;9.956;2023-03-14T11:12:00;1.40;;;0.40;;
13698;SDS011;6921;53.642;9.956;2023-03-14T11:14:24;0.87;;;0.40;;
13698;SDS011;6921;53.642;9.956;2023-03-14T11:16:34;1.20;;;0.57;;
13698;SDS011;6921;53.642;9.956;2023-03-14T11:19:03;1.83;;;0.43;;
13698;SDS011;6921;53.642;9.956;2023-03-14T11:21:15;0.40;;;0.30;;
13698;SDS011;6921;53.642;9.956;2023-03-14T11:23:20;2.57;;;0.57;;
13698;SDS011;6921;53.642;9.956;2023-03-14T11:25:26;2.40;;;0.60;;
13698;SDS011;6921;53.642;9.956;2023-03-14T11:27:34;3.33;;;0.57;;
13698;SDS011;6921;53.642;9.956;2023-03-14T11:29:40;2.63;;;0.70;;
13698;SDS011;6921;53.642;9.956;2023-03-14T11:31:43;1.50;;;0.60;;
13698;SDS011;6921;53.642;9.956;2023-03-14T11:33:49;3.60;;;0.70;;
13698;SDS011;6921;53.642;9.956;2023-03-14T11:35:58;1.97;;;0.43;;
13698;SDS011;6921;53.642;9.956;2023-03-14T11:38:18;1.60;;;0.70;;
13698;SDS011;6921;53.642;9.956;2023-03-14T11:40:23;3.50;;;1.07;;
13698;SDS011;6921;53.642;9.956;2023-03-14T11:42:28;5.63;;;1.10;;
13698;SDS011;6921;53.642;9.956;2023-03-14T11:44:32;4.10;;;0.97;;
13698;SDS011;6921;53.642;9.956;2023-03-14T11:46:38;2.17;;;0.60;;
13698;SDS011;6921;53.642;9.956;2023-03-14T11:48:43;4.10;;;0.70;;
13698;SDS011;6921;53.642;9.956;2023-03-14T11:50:49;2.37;;;0.50;;
13698;SDS011;6921;53.642;9.956;2023-03-14T11:52:54;1.77;;;0.60;;
13698;SDS011;6921;53.642;9.956;2023-03-14T11:55:02;4.07;;;0.70;;
13698;SDS011;6921;53.642;9.956;2023-03-14T11:57:10;4.63;;;1.00;;
13698;SDS011;6921;53.642;9.956;2023-03-14T11:59:15;3.97;;;0.97;;
13698;SDS011;6921;53.642;9.956;2023-03-14T12:01:20;1.90;;;0.53;;
13698;SDS011;6921;53.642;9.956;2023-03-14T12:03:27;5.97;;;0.90;;
13698;SDS011;6921;53.642;9.956;2023-03-14T12:05:37;3.47;;;0.80;;
13698;SDS011;6921;53.642;9.956;2023-03-14T12:07:44;3.77;;;0.77;;
13698;SDS011;6921;53.642;9.956;2023-03-14T12:09:55;4.03;;;1.07;;
13698;SDS011;6921;53.642;9.956;2023-03-14T12:12:00;3.00;;;0.87;;
13698;SDS011;6921;53.642;9.956;2023-03-14T12:14:16;4.77;;;1.33;;
13698;SDS011;6921;53.642;9.956;2023-03-14T12:16:26;3.60;;;1.00;;
13698;SDS011;6921;53.642;9.956;2023-03-14T12:18:31;8.03;;;1.03;;
13698;SDS011;6921;53.642;9.956;2023-03-14T12:20:35;3.80;;;1.10;;
13698;SDS011;6921;53.642;9.956;2023-03-14T12:22:41;7.20;;;1.27;;
13698;SDS011;6921;53.642;9.956;2023-03-14T12:24:47;7.50;;;1.23;;
13698;SDS011;6921;53.642;9.956;2023-03-14T12:26:53;6.73;;;1.37;;
13698;SDS011;6921;53.642;9.956;2023-03-14T12:29:11;5.63;;;1.33;;
13698;SDS011;6921;53.642;9.956;2023-03-14T12:31:38;5.07;;;1.27;;
13698;SDS011;6921;53.642;9.956;2023-03-14T12:33:42;8.23;;;1.47;;
13698;SDS011;6921;53.642;9.956;2023-03-14T12:35:46;5.67;;;1.00;;
13698;SDS011;6921;53.642;9.956;2023-03-14T12:37:50;5.77;;;1.00;;
13698;SDS011;6921;53.642;9.956;2023-03-14T12:40:12;7.00;;;1.13;;
13698;SDS011;6921;53.642;9.956;2023-03-14T12:42:20;5.03;;;1.33;;
13698;SDS011;6921;53.642;9.956;2023-03-14T12:44:44;5.20;;;1.20;;
13698;SDS011;6921;53.642;9.956;2023-03-14T12:46:48;7.43;;;1.53;;